AirNav   SIMCOM
 
 952 users online  

2R0 Waynesboro Municipal Airport
Waynesboro, Mississippi, USA


FAA INFORMATION EFFECTIVE 09 NOVEMBER 2017

Location

FAA Identifier: 2R0
Lat/Long: 31-38-36.7940N / 088-38-06.3420W
31-38.613233N / 088-38.105700W
31.6435539 / -88.6350950
(estimated)
Elevation: 168.5 ft. / 51 m (estimated)
Variation: 02E (1985)
From city: 2 miles S of WAYNESBORO, MS
Time zone: UTC -6 (UTC -5 during Daylight Saving Time)
Zip code: 39367

Airport Operations

Airport use: Open to the public
Activation date: 09/1964
Control tower: no
ARTCC: MEMPHIS CENTER
FSS: GREENWOOD FLIGHT SERVICE STATION
NOTAMs facility: GWO (NOTAM-D service available)
Attendance: M-F 0800-1600
FOR ARPT ATTENDANT AFTER HRS CALL 601-735-9282 OR 601-410-3650.
Wind indicator: lighted
Segmented circle: yes
Lights: ACTVT MIRL RY 02/20 & PAPI RY 02 AND RY 20 - CTAF.
Beacon: white-green (lighted land airport)
Operates sunset to sunrise.

Airport Communications

CTAF/UNICOM: 122.8

Nearby radio navigation aids

VOR radial/distance  VOR name  Freq  Var
GCVr342/33.6GREENE COUNTY VORTAC115.7005E
LBYr064/38.4EATON VORTAC110.6005E

 
NDB name  Hdg/Dist  Freq  Var  ID
TALLAHALA095/28.534600ETHJ - .... .---

Airport Services

Fuel available: 100LL
FUEL 24 HR CREDIT CARD SVC AVBL.
Parking: tiedowns
Bottled oxygen: NONE
Bulk oxygen: NONE

Runway Information

Runway 2/20

Dimensions: 5000 x 75 ft. / 1524 x 23 m
Surface: asphalt, in good condition
Weight bearing capacity: 
Single wheel: 15.0
Runway edge lights: medium intensity
RUNWAY 2  RUNWAY 20
Latitude: 31-38.231117N31-38.995350N
Longitude: 088-38.286817W088-37.924567W
Elevation: 167.0 ft.168.5 ft.
Gradient: 0.1%0.1%
Traffic pattern: leftleft
Displaced threshold: no665 ft.
Markings: nonprecision, in good conditionnonprecision, in good condition
Visual slope indicator: 2-light PAPI on left2-light PAPI on left
Touchdown point: yes, no lightsyes, no lights
Obstructions: 73 ft. trees, 1700 ft. from runway, 100 ft. right of centerline, 20:1 slope to clear23 ft. rr, 600 ft. from runway, 17:1 slope to clear
RY 20 APCH RATIO 50+:1 TO DSPLCD THLD.

Airport Ownership and Management from official FAA records

Ownership: Publicly-owned
Owner: CITY OF WAYNESBORO
714 WAYNE ST.
WAYNESBORO, MS 39367
Phone 601-735-4874
MARTY STADALIS - CHAIRMAN ARPT BOARD.
Manager: JANICE WOLFF
P.O. BOX 872
WAYNESBORO, MS 39367
Phone 601-735-9682

Airport Operational Statistics

Aircraft based on the field: 12
Single engine airplanes: 10
Multi engine airplanes: 2
    
Aircraft operations: avg 58/week *
51% local general aviation
43% transient general aviation
7% military
* for 12-month period ending 09 March 2017

Instrument Procedures

There are no published instrument procedures at 2R0.

Some nearby airports with instrument procedures:

5R1 - Roy Wilcox Airport (25 nm SE)
KLUL - Hesler-Noble Field Airport (28 nm W)
KPIB - Hattiesburg/Laurel Regional Airport (37 nm W)
09A - Butler-Choctaw County Airport (39 nm NE)
KHBG - Hattiesburg Bobby L Chain Municipal Airport (39 nm SW)
 
Loc | Ops | Rwys | IFR | FBO | Links
Com | Nav | Svcs | Stats | Notes


 
Area around 2R0 (Waynesboro Municipal Airport)
 
Road maps at: MapQuest Bing Google
 
Aerial photo
WARNING: Photo may not be current or correct
Aerial photo of 2R0 (Waynesboro Municipal Airport)
Do you have a better or more recent aerial photo of Waynesboro Municipal Airport that you would like to share? If so, please send us your photo.

 
Sectional chart

 
Airport distance calculator
Flying to Waynesboro Municipal Airport? Find the distance to fly.

From to 2R0

Sunrise and sunset
Times for 18-Nov-2017
 Local
(UTC-6)
 Zulu
(UTC)
Morning civil twilight06:0012:00
Sunrise06:2612:26
Sunset16:5322:53
Evening civil twilight17:1923:19

Current date and time
Zulu (UTC)  18-Nov-2017 23:33:58
Local (UTC-6)  18-Nov-2017 17:33:58
 
METAR
KPIB 
36nm W 
182256Z AUTO 20009KT 10SM BKN037 BKN048 23/18 A2980 RMK AO2 SLP089 T02330183
KLUL 
37nm W 
182315Z AUTO 21006KT 10SM BKN045 BKN050 BKN085 24/17 A2978 RMK AO2 T02350172
KHBG 
39nm SW 
182253Z AUTO 18005KT 10SM FEW048 SCT075 24/18 A2981 RMK AO2 SLP091 T02390183
KMEI 
42nm N 
182258Z AUTO 20011KT 10SM FEW046 SCT080 24/18 A2974 RMK AO2 SLP068 T02440183
TAF
KHBG 
39nm SW 
181749Z 1818/1918 22016G24KT P6SM BKN030 OVC045 FM190000 24016G26KT P6SM VCSH BKN020 OVC030 FM190300 32013G25KT P6SM OVC025 FM190600 34011G19KT P6SM BKN035 FM191000 35010KT P6SM SKC
KMEI 
42nm N 
181749Z 1818/1918 20017G25KT P6SM SCT025 OVC035 FM182300 24017G26KT P6SM VCSH BKN020 OVC030 FM190200 31020G29KT P6SM OVC025 FM190500 34014G20KT P6SM BKN035 FM190900 35010KT P6SM SKC
NOTAMs
Click for the latest NOTAMs
NOTAMs are issued by the DoD/FAA and will open in a separate window not controlled by AirNav.

 

 
 

FBO, Fuel Providers, and Aircraft Ground Support

  
 Business Name 
 
 Contact 
 
 Services / Description 
 
Fuel Prices
 
Comments
  
Waynesboro Municipal Airport 601-735-9682
no information available

If you are affiliated with Waynesboro Municipal Airport and would like to show here your services, contact info, web link, logo, and more, click here
100LL
SS $3.49 
 Updated 16-Nov-2017
 
   8 read write
SS=Self service
Update Fuel Prices
 

Would you like to see your business listed on this page?

 If your business provides an interesting product or service to pilots, flight crews, aircraft, or users of the Waynesboro Municipal Airport, you should consider listing it here.  To start the listing process, click on the button below
 
Add a business
 

Other Pages about Waynesboro Municipal Airport

Update a link
 
Copyright © AirNav, LLC. All rights reserved. Privacy Policy  Contact